Time;durP1;ratioP1;P1;durP2;ratioP2;P2;SDS_P1;SDS_P2;PMS_P1;PMS_P2;Temp;Humidity;BMP_temperature;BMP_pressure;BME280_temperature;BME280_humidity;BME280_pressure;Samples;Min_cycle;Max_cycle;Signal;HPM_P1;HPM_P2
2022/08/24 00:02:06;;;;;;;2.80;2.60;;;;;;;19.50;72.81;101634.06;5055486;28;20389;-82
2022/08/24 00:04:32;;;;;;;3.93;2.80;;;;;;;19.46;73.25;101625.44;5071777;28;20036;-82
2022/08/24 00:06:57;;;;;;;2.65;2.42;;;;;;;19.43;73.17;101633.44;5072544;28;20286;-82
2022/08/24 00:09:23;;;;;;;3.50;2.70;;;;;;;19.41;73.25;101624.75;5058517;28;20040;-82
2022/08/24 00:11:48;;;;;;;3.30;3.00;;;;;;;19.39;73.30;101629.19;5051884;28;20420;-82
2022/08/24 00:14:13;;;;;;;2.63;2.43;;;;;;;19.37;73.35;101628.41;5052846;28;20112;-83
2022/08/24 00:16:40;;;;;;;3.10;2.80;;;;;;;19.33;73.65;101621.56;5051992;28;20024;-82
2022/08/24 00:19:05;;;;;;;2.80;2.60;;;;;;;19.29;73.44;101623.47;5052102;28;20028;-82
2022/08/24 00:21:32;;;;;;;3.07;2.77;;;;;;;19.27;74.04;101633.19;5064497;28;20090;-83
2022/08/24 00:23:57;;;;;;;2.83;2.60;;;;;;;19.25;73.97;101635.03;5071613;28;20551;-83
2022/08/24 00:26:22;;;;;;;2.77;2.57;;;;;;;19.22;73.94;101638.63;5072610;28;20078;-82
2022/08/24 00:28:48;;;;;;;3.17;2.87;;;;;;;19.18;74.10;101639.66;5060779;28;20120;-82
2022/08/24 00:31:14;;;;;;;2.70;2.50;;;;;;;19.17;74.23;101634.47;5051874;28;20071;-82
2022/08/24 00:33:39;;;;;;;2.90;2.70;;;;;;;19.14;74.19;101640.69;5069092;28;20047;-83
2022/08/24 00:36:06;;;;;;;3.17;2.87;;;;;;;19.13;74.27;101636.38;5072211;28;20059;-82
2022/08/24 00:38:31;;;;;;;3.58;3.10;;;;;;;19.12;74.34;101648.66;5071270;28;20024;-82
2022/08/24 00:40:57;;;;;;;3.20;2.78;;;;;;;19.08;74.36;101647.03;5064273;28;20385;-83
2022/08/24 00:43:25;;;;;;;3.50;2.90;;;;;;;19.05;74.55;101643.69;5052718;28;20025;-83
2022/08/24 00:45:58;;;;;;;3.13;2.70;;;;;;;19.02;74.61;101644.66;5068561;28;20028;-82
2022/08/24 00:48:29;;;;;;;3.28;2.70;;;;;;;19.00;74.79;101645.66;5072322;28;20035;-82
2022/08/24 00:51:02;;;;;;;3.10;2.80;;;;;;;19.00;74.78;101645.66;5072142;28;20078;-82
2022/08/24 00:53:38;;;;;;;3.10;2.75;;;;;;;18.97;74.81;101651.88;5071626;28;20044;-82
2022/08/24 00:56:08;;;;;;;4.22;3.30;;;;;;;18.95;74.73;101649.28;5070212;28;20492;-82
2022/08/24 00:58:38;;;;;;;3.97;3.13;;;;;;;18.93;74.80;101659.00;5052208;28;20032;-82
2022/08/24 01:01:06;;;;;;;3.45;3.10;;;;;;;18.93;74.89;101655.50;5051298;28;20052;-82
2022/08/24 01:03:34;;;;;;;3.35;3.00;;;;;;;18.87;75.19;101653.97;5052757;28;20401;-82
2022/08/24 01:06:00;;;;;;;3.83;3.10;;;;;;;18.84;75.13;101656.69;5069880;28;20064;-82
2022/08/24 01:08:26;;;;;;;4.53;3.35;;;;;;;18.84;75.29;101651.44;5051316;28;20060;-82
2022/08/24 01:10:57;;;;;;;4.65;3.40;;;;;;;18.82;75.30;101650.63;5051953;28;20025;-82
2022/08/24 01:13:24;;;;;;;3.50;3.00;;;;;;;18.78;75.40;101647.25;5051614;28;20124;-82
2022/08/24 01:15:53;;;;;;;4.35;3.00;;;;;;;18.74;75.49;101643.06;5051567;28;20029;-83
2022/08/24 01:21:25;;;;;;;4.43;3.35;;;;;;;18.70;75.34;101643.19;5071388;28;20043;-83
2022/08/24 01:23:57;;;;;;;3.97;3.27;;;;;;;18.68;75.81;101641.50;5065822;28;20021;-82
2022/08/24 01:26:31;;;;;;;4.25;3.30;;;;;;;18.69;75.63;101652.88;5051873;28;20036;-82
2022/08/24 01:29:03;;;;;;;4.13;3.33;;;;;;;18.68;75.90;101644.13;5051793;28;20112;-82
2022/08/24 01:31:28;;;;;;;4.78;3.50;;;;;;;18.66;75.86;101648.59;5060199;28;20036;-83
2022/08/24 01:33:54;;;;;;;5.20;3.67;;;;;;;18.66;76.01;101651.22;5054643;28;20021;-82
2022/08/24 01:36:45;;;;;;;4.63;3.55;;;;;;;18.65;76.03;101654.75;5054409;28;20032;-82
2022/08/24 01:39:16;;;;;;;5.18;3.60;;;;;;;18.59;76.16;101649.69;5054514;28;20048;-82
2022/08/24 01:41:42;;;;;;;4.57;3.30;;;;;;;18.57;76.21;101640.16;5054933;28;20389;-82
2022/08/24 01:44:08;;;;;;;4.13;3.40;;;;;;;18.51;76.12;101634.22;5064798;28;20028;-82
2022/08/24 01:46:34;;;;;;;4.20;3.40;;;;;;;18.51;76.29;101630.72;5057178;28;20067;-82
2022/08/24 01:48:59;;;;;;;4.95;3.72;;;;;;;18.49;76.36;101633.44;5054234;28;20429;-82
2022/08/24 01:51:29;;;;;;;5.03;3.50;;;;;;;18.49;76.54;101635.19;5054990;28;20029;-82
2022/08/24 01:53:55;;;;;;;4.35;3.40;;;;;;;18.48;76.61;101644.84;5068190;28;20044;-83
2022/08/24 01:56:20;;;;;;;4.67;3.80;;;;;;;18.48;76.48;101636.09;5074487;28;20029;-82
2022/08/24 01:58:47;;;;;;;5.33;3.80;;;;;;;18.47;76.65;101647.50;5073360;28;20154;-82
2022/08/24 02:01:13;;;;;;;;;;;;;;;18.44;76.75;101637.13;5054975;28;20678;-82
2022/08/24 02:03:38;;;;;;;4.28;3.40;;;;;;;18.39;76.85;101641.69;5061979;28;19912;-82
2022/08/24 02:06:04;;;;;;;4.13;3.17;;;;;;;18.35;77.10;101638.31;5074694;28;20025;-82
2022/08/24 02:08:31;;;;;;;3.03;2.73;;;;;;;18.31;77.28;101637.56;5075127;28;20484;-83
2022/08/24 02:10:56;;;;;;;;;;;;;;;18.27;77.02;101638.56;5074281;28;20025;-84
2022/08/24 02:13:21;;;;;;;5.40;3.30;;;;;;;18.23;77.01;101636.97;5069085;28;19919;-83
2022/08/24 02:15:47;;;;;;;3.87;3.20;;;;;;;18.18;76.98;101639.75;5054433;28;20039;-83
2022/08/24 02:18:12;;;;;;;3.42;3.00;;;;;;;18.15;76.96;101639.00;5062468;28;20032;-83
2022/08/24 02:20:38;;;;;;;4.80;3.20;;;;;;;18.12;77.09;101645.22;5073996;28;20556;-83
2022/08/24 02:23:05;;;;;;;3.50;3.10;;;;;;;18.07;77.25;101641.88;5074603;28;20028;-83
2022/08/24 02:25:30;;;;;;;3.53;3.10;;;;;;;18.05;77.26;101647.19;5074073;28;20043;-83
2022/08/24 02:27:58;;;;;;;4.37;3.30;;;;;;;18.03;77.20;101642.91;5066454;28;20100;-83
2022/08/24 02:30:24;;;;;;;3.80;3.15;;;;;;;18.02;77.27;101644.66;5053565;28;20029;-83
2022/08/24 02:32:50;;;;;;;;;;;;;;;18.00;77.46;101653.50;5054707;28;20025;-83
2022/08/24 02:35:16;;;;;;;4.13;3.20;;;;;;;17.97;77.55;101657.09;5054219;28;19913;-83
2022/08/24 02:37:42;;;;;;;3.30;2.80;;;;;;;17.93;77.41;101658.06;5053910;28;20385;-83
2022/08/24 02:40:08;;;;;;;3.50;2.90;;;;;;;17.91;77.53;101658.13;5054026;28;20091;-83
2022/08/24 02:42:34;;;;;;;;;;;;;;;17.90;77.44;101660.84;5067991;28;20032;-83
2022/08/24 02:45:01;;;;;;;4.25;3.33;;;;;;;17.89;77.56;101659.97;5072084;28;19916;-82
2022/08/24 02:47:26;;;;;;;4.10;3.30;;;;;;;17.87;77.59;101659.13;5072607;28;20025;-83
2022/08/24 02:49:51;;;;;;;4.10;3.20;;;;;;;17.85;77.59;101660.94;5073589;28;20464;-83
2022/08/24 02:52:17;;;;;;;4.33;2.90;;;;;;;17.83;77.71;101664.53;5073182;28;20396;-83
2022/08/24 02:54:42;;;;;;;3.17;2.87;;;;;;;17.80;77.60;101655.00;5074003;28;20036;-83
2022/08/24 02:57:07;;;;;;;3.77;3.10;;;;;;;17.81;77.83;101655.84;5069607;28;20024;-83
2022/08/24 02:59:33;;;;;;;3.73;3.10;;;;;;;17.79;77.86;101661.16;5073050;28;20060;-83
2022/08/24 03:01:58;;;;;;;3.47;2.90;;;;;;;17.79;77.74;101657.69;5073774;28;20119;-83
2022/08/24 03:04:24;;;;;;;4.30;3.20;;;;;;;17.75;77.79;101657.78;5073307;28;20025;-83
2022/08/24 03:06:49;;;;;;;3.87;3.27;;;;;;;17.75;77.87;101651.66;5072143;28;20073;-83
2022/08/24 03:09:15;;;;;;;3.43;3.10;;;;;;;17.73;77.95;101656.97;5073632;28;20036;-83
2022/08/24 03:11:41;;;;;;;5.63;3.47;;;;;;;17.73;78.02;101656.13;5055088;28;20535;-83
2022/08/24 03:14:06;;;;;;;4.97;3.50;;;;;;;17.71;78.17;101648.28;5052832;28;20029;-83
2022/08/24 03:16:32;;;;;;;4.43;3.40;;;;;;;17.70;77.99;101656.22;5053571;28;20028;-83
2022/08/24 03:18:58;;;;;;;3.50;3.20;;;;;;;17.67;78.05;101654.56;5053184;28;20036;-83
2022/08/24 03:21:23;;;;;;;5.07;3.60;;;;;;;17.66;78.35;101646.72;5052919;28;20099;-83
2022/08/24 03:23:49;;;;;;;4.00;3.30;;;;;;;17.64;78.37;101644.16;5054286;28;20025;-83
2022/08/24 03:26:14;;;;;;;4.40;3.40;;;;;;;17.63;78.33;101650.31;5073550;28;20055;-83
2022/08/24 03:28:39;;;;;;;4.77;3.50;;;;;;;17.62;78.26;101647.75;5072762;28;20024;-83
2022/08/24 03:31:05;;;;;;;4.90;3.60;;;;;;;17.59;78.21;101648.69;5072883;28;20016;-83
2022/08/24 03:33:31;;;;;;;3.65;2.97;;;;;;;17.55;78.45;101642.66;5072882;28;20032;-82
2022/08/24 03:35:56;;;;;;;5.40;3.63;;;;;;;17.54;78.57;101642.72;5072606;28;20082;-83
2022/08/24 03:38:22;;;;;;;5.77;3.77;;;;;;;17.53;78.46;101641.84;5066664;28;20095;-83
2022/08/24 03:40:47;;;;;;;5.37;3.80;;;;;;;17.52;78.52;101641.91;5051941;28;20127;-83
2022/08/24 03:43:44;;;;;;;5.30;3.57;;;;;;;17.49;78.44;101636.75;5052860;28;20362;-83
2022/08/24 03:46:01;;;;;;;3.90;3.13;;;;;;;17.46;78.71;101640.34;5052580;28;20033;-83
2022/08/24 03:48:28;;;;;;;5.05;3.13;;;;;;;17.44;78.82;101642.16;5070932;28;20025;-83
2022/08/24 03:50:54;;;;;;;3.25;2.78;;;;;;;17.40;78.77;101644.03;5072187;28;20029;-83
2022/08/24 03:53:19;;;;;;;2.90;2.60;;;;;;;17.38;78.71;101648.44;5057226;28;20053;-83
2022/08/24 03:55:45;;;;;;;3.97;3.10;;;;;;;17.37;78.93;101643.25;5052271;28;20033;-83
2022/08/24 03:58:10;;;;;;;4.47;3.20;;;;;;;17.36;78.68;101658.13;5052753;28;20032;-83
2022/08/24 04:00:38;;;;;;;5.07;3.53;;;;;;;17.34;78.67;101648.59;5058414;28;20048;-83
2022/08/24 04:03:03;;;;;;;4.63;3.30;;;;;;;17.31;78.91;101646.06;5072052;28;20487;-83
2022/08/24 04:05:30;;;;;;;5.50;3.83;;;;;;;17.30;78.72;101653.09;5072772;28;20108;-83
2022/08/24 04:07:55;;;;;;;6.32;4.03;;;;;;;17.29;78.91;101654.00;5055870;28;20067;-83
2022/08/24 04:10:21;;;;;;;7.67;4.40;;;;;;;17.28;79.02;101649.66;5051912;28;20473;-83
2022/08/24 04:12:46;;;;;;;7.37;4.40;;;;;;;17.26;78.89;101648.81;5052621;28;20021;-83
2022/08/24 04:15:11;;;;;;;7.00;4.30;;;;;;;17.25;79.10;101660.22;5052150;28;20021;-83
2022/08/24 04:17:37;;;;;;;8.23;4.30;;;;;;;17.20;79.11;101651.66;5048020;28;20083;-83
2022/08/24 04:20:03;;;;;;;8.80;4.87;;;;;;;17.19;79.21;101652.56;5067647;28;20044;-83
2022/08/24 04:22:37;;;;;;;6.40;4.20;;;;;;;17.19;79.41;101655.19;5052460;28;20047;-83
2022/08/24 04:25:06;;;;;;;6.57;4.15;;;;;;;17.19;79.17;101657.81;5051387;28;20052;-83
2022/08/24 04:27:31;;;;;;;7.45;4.43;;;;;;;17.18;79.39;101667.41;5052043;28;20029;-83
2022/08/24 04:29:57;;;;;;;7.83;4.60;;;;;;;17.18;79.25;101662.16;5051779;28;20370;-83
2022/08/24 04:32:32;;;;;;;7.67;4.73;;;;;;;17.18;79.33;101659.53;5052924;28;20025;-84
2022/08/24 04:34:58;;;;;;;7.55;4.30;;;;;;;17.13;79.54;101664.94;5058340;28;20423;-83
2022/08/24 04:37:23;;;;;;;6.32;4.15;;;;;;;17.12;79.28;101663.22;5061106;28;20037;-83
2022/08/24 04:39:58;;;;;;;8.02;4.75;;;;;;;17.12;79.48;101663.22;5052495;28;20052;-83
2022/08/24 04:42:24;;;;;;;7.80;4.65;;;;;;;17.13;79.39;101659.69;5051900;28;20120;-83
2022/08/24 04:44:50;;;;;;;8.38;4.50;;;;;;;17.13;79.68;101664.94;5051491;28;20112;-83
2022/08/24 04:47:15;;;;;;;7.27;4.50;;;;;;;17.14;79.67;101666.66;5044555;28;20041;-83
2022/08/24 04:49:40;;;;;;;7.43;4.57;;;;;;;17.13;79.54;101664.94;5062053;28;20017;-84
2022/08/24 04:52:09;;;;;;;6.93;4.30;;;;;;;17.13;79.77;101664.09;5071496;28;20492;-84
2022/08/24 04:54:34;;;;;;;6.57;4.00;;;;;;;17.10;79.78;101672.91;5072137;28;20028;-83
2022/08/24 04:57:00;;;;;;;6.53;3.93;;;;;;;17.09;79.86;101678.19;5071898;28;20103;-83
2022/08/24 04:59:25;;;;;;;5.40;3.63;;;;;;;17.08;80.04;101679.09;5071683;28;20029;-83
2022/08/24 05:01:51;;;;;;;6.87;4.20;;;;;;;17.08;80.15;101672.09;5072300;28;20024;-83
2022/08/24 05:04:16;;;;;;;7.23;4.40;;;;;;;17.10;80.10;101679.91;5070327;28;20161;-83
2022/08/24 05:06:41;;;;;;;6.73;4.50;;;;;;;17.10;79.99;101682.53;5056398;28;20025;-83
2022/08/24 05:09:07;;;;;;;7.47;4.60;;;;;;;17.10;79.91;101680.78;5055246;28;20103;-83
2022/08/24 05:11:36;;;;;;;6.00;4.00;;;;;;;17.09;80.16;101678.19;5055882;28;20029;-83
2022/08/24 05:14:02;;;;;;;6.50;3.88;;;;;;;17.08;80.09;101681.72;5058199;28;20838;-83
2022/08/24 05:16:28;;;;;;;7.90;4.68;;;;;;;17.09;80.15;101683.44;5075993;28;20020;-83
2022/08/24 05:18:54;;;;;;;5.93;4.10;;;;;;;17.08;80.15;101679.97;5060494;28;20107;-83
2022/08/24 05:21:22;;;;;;;7.22;4.40;;;;;;;17.10;80.24;101680.78;5055335;28;20017;-83
2022/08/24 05:23:48;;;;;;;6.32;3.90;;;;;;;17.11;80.44;101677.22;5057029;28;20106;-83
2022/08/24 05:26:20;;;;;;;8.20;4.30;;;;;;;17.13;80.25;101685.91;5054646;28;20119;-83
2022/08/24 05:28:46;;;;;;;6.25;4.32;;;;;;;17.15;80.32;101685.88;5055489;28;20170;-83
2022/08/24 05:31:14;;;;;;;7.07;4.43;;;;;;;17.18;80.33;101683.16;5055805;28;20024;-83
2022/08/24 05:33:40;;;;;;;6.03;4.00;;;;;;;17.21;80.34;101685.69;5057007;28;20528;-85
2022/08/24 05:36:15;;;;;;;6.22;3.90;;;;;;;17.24;80.16;101688.22;5056470;28;20021;-83
2022/08/24 05:38:41;;;;;;;5.53;3.83;;;;;;;17.24;80.11;101690.84;5070124;28;20040;-84
2022/08/24 05:41:06;;;;;;;6.07;4.00;;;;;;;17.27;80.26;101692.53;5074672;28;20511;-85
2022/08/24 05:43:31;;;;;;;6.37;3.63;;;;;;;17.28;80.11;101692.47;5063088;28;20032;-84
2022/08/24 05:45:56;;;;;;;6.40;4.00;;;;;;;17.30;80.37;101697.69;5055010;28;20025;-81
2022/08/24 05:48:22;;;;;;;5.40;3.50;;;;;;;17.33;80.29;101699.34;5054977;28;20521;-82
2022/08/24 05:50:57;;;;;;;4.57;3.23;;;;;;;17.34;80.49;101687.94;5055448;28;20025;-83
2022/08/24 05:53:23;;;;;;;4.13;3.20;;;;;;;17.36;80.39;101696.66;5054731;28;20389;-82
2022/08/24 05:55:49;;;;;;;3.30;2.90;;;;;;;17.36;81.00;101687.00;5065316;28;20025;-82
2022/08/24 05:58:15;;;;;;;2.60;2.40;;;;;;;17.37;81.32;101691.34;5075461;28;20028;-82
2022/08/24 06:00:40;;;;;;;2.73;2.47;;;;;;;17.39;81.10;101691.31;5073425;28;20053;-83
2022/08/24 06:03:05;;;;;;;2.80;2.50;;;;;;;17.44;81.26;101690.25;5073733;28;20027;-83
2022/08/24 06:05:31;;;;;;;2.67;2.40;;;;;;;17.47;80.96;101697.19;5074774;28;20063;-83
2022/08/24 06:07:57;;;;;;;3.00;2.53;;;;;;;17.51;81.13;101696.16;5075253;28;20419;-83
2022/08/24 06:10:22;;;;;;;3.20;2.77;;;;;;;17.56;81.32;101690.78;5074308;28;20606;-83
2022/08/24 06:12:47;;;;;;;3.93;3.00;;;;;;;17.63;81.20;101704.56;5065391;28;20376;-83
2022/08/24 06:15:13;;;;;;;3.77;2.97;;;;;;;17.70;81.28;101703.47;5060668;28;20040;-82
2022/08/24 06:17:39;;;;;;;3.03;2.70;;;;;;;17.78;81.28;101708.50;5074328;28;20491;-83
2022/08/24 06:20:04;;;;;;;2.50;2.30;;;;;;;17.85;82.00;101712.63;5073937;28;20028;-82
2022/08/24 06:22:30;;;;;;;2.22;2.03;;;;;;;17.94;82.11;101712.31;5074110;28;20029;-82
2022/08/24 06:27:40;;;;;;;1.70;1.60;;;;;;;18.10;82.63;101719.75;5074943;28;20395;-83
2022/08/24 06:30:08;;;;;;;1.60;1.50;;;;;;;18.18;83.14;101720.34;5057031;28;20382;-83
2022/08/24 06:32:34;;;;;;;1.15;1.15;;;;;;;18.26;83.50;101717.47;5054283;28;20033;-82
2022/08/24 06:35:00;;;;;;;2.40;2.20;;;;;;;18.37;85.26;101724.06;5054572;28;20032;-82
2022/08/24 06:37:26;;;;;;;3.13;2.60;;;;;;;18.49;85.08;101724.53;5053230;28;20530;-82
2022/08/24 06:39:56;;;;;;;3.15;2.70;;;;;;;18.60;85.39;101727.66;5054205;28;20028;-81
2022/08/24 06:42:23;;;;;;;3.75;2.90;;;;;;;18.72;86.14;101729.00;5071248;28;20025;-83
2022/08/24 06:44:49;;;;;;;3.78;2.92;;;;;;;18.83;85.90;101731.25;5074295;28;20078;-88
2022/08/24 06:47:14;;;;;;;3.53;2.73;;;;;;;18.94;85.71;101730.91;5073866;28;20435;-82
2022/08/24 06:49:39;;;;;;;4.33;3.40;;;;;;;19.05;86.82;101735.75;5074680;28;20286;-84
2022/08/24 06:52:05;;;;;;;12.37;7.23;;;;;;;19.18;90.65;101729.13;5072910;28;20029;-88
2022/08/24 06:54:31;;;;;;;16.17;8.95;;;;;;;19.33;88.84;101729.47;5070554;28;20063;-86
2022/08/24 06:56:57;;;;;;;19.63;12.88;;;;;;;19.45;89.56;101729.84;5053970;28;20032;-85
2022/08/24 06:59:27;;;;;;;17.58;10.68;;;;;;;19.58;87.75;101732.88;5053577;28;20033;-86
2022/08/24 07:01:54;;;;;;;12.38;7.55;;;;;;;19.69;87.64;101731.59;5053818;28;20028;-86
2022/08/24 07:04:21;;;;;;;11.27;6.72;;;;;;;19.81;87.43;101738.13;5054076;28;20104;-86
2022/08/24 07:06:46;;;;;;;8.48;5.65;;;;;;;19.93;87.91;101736.84;5052771;28;20061;-86
2022/08/24 07:09:12;;;;;;;15.23;9.50;;;;;;;20.06;87.08;101740.66;5059389;28;20048;-85
2022/08/24 07:11:37;;;;;;;11.03;6.50;;;;;;;21.08;87.22;101743.38;5073087;28;20020;-85
2022/08/24 07:14:03;;;;;;;6.50;4.70;;;;;;;23.49;83.83;101746.38;5073498;28;20324;-86
2022/08/24 07:16:28;;;;;;;4.60;3.30;;;;;;;25.84;80.03;101749.97;5073518;28;20110;-85
2022/08/24 07:18:53;;;;;;;7.37;5.00;;;;;;;27.59;70.81;101750.47;5072902;28;20013;-87
2022/08/24 07:21:19;;;;;;;6.23;4.20;;;;;;;28.60;63.13;101746.44;5073672;28;20404;-86
2022/08/24 07:23:46;;;;;;;8.07;5.10;;;;;;;28.75;64.04;101752.41;5063787;28;20025;-83
2022/08/24 07:26:14;;;;;;;7.20;5.07;;;;;;;28.45;62.65;101751.16;5051889;28;20469;-82
2022/08/24 07:28:40;;;;;;;4.85;3.72;;;;;;;27.66;62.94;101745.53;5053540;28;20040;-82
2022/08/24 07:31:06;;;;;;;7.10;4.90;;;;;;;26.93;62.28;101754.22;5052081;28;20028;-82
2022/08/24 07:33:32;;;;;;;15.93;10.02;;;;;;;26.12;62.50;101753.50;5072603;28;20103;-82
2022/08/24 07:35:58;;;;;;;9.63;6.30;;;;;;;25.48;66.02;101750.59;5061471;28;20028;-80
2022/08/24 07:38:23;;;;;;;6.63;5.00;;;;;;;25.02;68.09;101747.22;5053261;28;20503;-81
2022/08/24 07:40:49;;;;;;;5.45;4.22;;;;;;;24.74;68.51;101745.41;5052383;28;20025;-81
2022/08/24 07:43:14;;;;;;;5.47;4.10;;;;;;;24.55;67.50;101748.28;5052877;28;20032;-82
2022/08/24 07:45:41;;;;;;;10.50;6.77;;;;;;;24.30;65.74;101745.31;5052901;28;20060;-84
2022/08/24 07:48:07;;;;;;;12.30;7.43;;;;;;;24.14;67.89;101749.84;5053399;28;20032;-84
2022/08/24 07:50:32;;;;;;;9.50;6.00;;;;;;;24.05;69.32;101748.56;5052967;28;20019;-84
2022/08/24 07:52:57;;;;;;;9.10;6.00;;;;;;;23.97;69.24;101741.06;5052665;28;20045;-84
2022/08/24 07:55:24;;;;;;;6.10;4.37;;;;;;;23.95;69.42;101740.28;5052621;28;20056;-83
2022/08/24 07:57:49;;;;;;;4.47;3.47;;;;;;;23.96;69.82;101739.34;5072829;28;20056;-85
2022/08/24 08:00:16;;;;;;;7.10;4.67;;;;;;;24.03;70.41;101745.16;5072928;28;20048;-85
2022/08/24 08:02:45;;;;;;;6.75;4.90;;;;;;;24.04;69.74;101738.91;5055935;28;20025;-84
2022/08/24 08:05:11;;;;;;;4.47;3.58;;;;;;;24.12;70.45;101747.25;5052690;28;20041;-85
2022/08/24 08:07:36;;;;;;;5.45;3.97;;;;;;;24.21;69.76;101746.72;5052801;28;20074;-85
2022/08/24 08:10:02;;;;;;;12.37;7.27;;;;;;;24.28;67.56;101747.19;5051306;28;20029;-85
2022/08/24 08:12:27;;;;;;;6.85;4.45;;;;;;;24.33;69.16;101749.56;5051988;28;20481;-84
2022/08/24 08:14:53;;;;;;;4.97;3.70;;;;;;;24.44;68.22;101747.13;5051903;28;20043;-85
2022/08/24 08:17:18;;;;;;;5.63;3.87;;;;;;;24.56;68.36;101753.53;5053498;28;20025;-85
2022/08/24 08:19:43;;;;;;;5.17;3.80;;;;;;;24.69;68.23;101752.81;5052579;28;20021;-85
2022/08/24 08:24:53;;;;;;;12.98;7.97;;;;;;;24.82;65.43;101759.09;5052503;28;20075;-84
2022/08/24 08:27:20;;;;;;;9.20;5.93;;;;;;;24.89;65.58;101762.19;5052166;28;20020;-85
2022/08/24 08:29:47;;;;;;;5.68;4.22;;;;;;;24.97;64.50;101754.63;5053857;28;20064;-85
2022/08/24 08:32:15;;;;;;;4.47;3.25;;;;;;;25.10;65.57;101760.00;5053486;28;20083;-84
2022/08/24 08:34:44;;;;;;;2.97;2.78;;;;;;;25.24;65.96;101759.13;5072371;28;20476;-84
2022/08/24 08:37:10;;;;;;;3.20;2.90;;;;;;;25.39;63.78;101752.03;5071003;28;20033;-85
2022/08/24 08:39:35;;;;;;;4.07;3.38;;;;;;;25.54;62.81;101752.88;5072354;28;20016;-85
2022/08/24 08:42:31;;;;;;;3.30;3.00;;;;;;;25.67;64.44;101751.09;5070700;28;20416;-85
2022/08/24 08:45:14;;;;;;;7.15;4.50;;;;;;;25.81;61.91;101755.53;5075417;28;20040;-85
2022/08/24 08:48:05;;;;;;;5.85;4.32;;;;;;;25.89;58.90;101761.19;5076215;28;20025;-84
2022/08/24 08:51:10;;;;;;;13.32;7.00;;;;;;;25.91;58.98;101761.06;5034976;28;20136;-84
2022/08/24 08:54:05;;;;;;;10.40;6.65;;;;;;;25.97;59.24;101755.38;5056266;28;20056;-83
2022/08/24 08:56:50;;;;;;;6.72;4.43;;;;;;;26.09;56.62;101764.31;5057039;28;20126;-84
2022/08/24 08:59:52;;;;;;;5.60;4.10;;;;;;;26.23;57.46;101758.13;5056251;28;20478;-83
2022/08/24 09:02:40;;;;;;;6.63;4.38;;;;;;;26.38;55.83;101758.03;5056346;28;20104;-83
2022/08/24 09:05:42;;;;;;;3.97;3.10;;;;;;;26.58;59.41;101756.66;5054743;28;20433;-83
2022/08/24 09:08:23;;;;;;;3.10;2.80;;;;;;;26.84;59.35;101759.34;5055704;28;20082;-83
2022/08/24 09:11:26;;;;;;;3.28;2.97;;;;;;;27.08;57.28;101762.09;5056169;28;20017;-83
2022/08/24 09:14:11;;;;;;;2.92;2.60;;;;;;;27.25;55.98;101766.22;5055439;28;20386;-83
2022/08/24 09:16:51;;;;;;;2.30;2.10;;;;;;;27.24;56.20;101773.38;5055849;28;20037;-83
2022/08/24 09:19:44;;;;;;;2.20;2.10;;;;;;;27.22;58.00;101771.75;5056019;28;20048;-82
2022/08/24 09:22:19;;;;;;;2.00;1.90;;;;;;;27.16;57.88;101766.88;5061636;28;20032;-83
2022/08/24 09:24:53;;;;;;;2.00;1.90;;;;;;;27.08;57.88;101767.41;5074681;28;20384;-88
2022/08/24 09:27:56;;;;;;;2.00;1.90;;;;;;;26.94;57.82;101766.56;5075026;28;20037;-82
2022/08/24 09:30:31;;;;;;;1.80;1.70;;;;;;;26.83;58.09;101769.13;5075850;28;20025;-83
2022/08/24 09:33:07;;;;;;;2.00;1.90;;;;;;;26.72;55.26;101774.31;5140550;22;20052;-83
2022/08/24 09:36:01;;;;;;;2.30;2.10;;;;;;;26.61;58.37;101761.78;5075983;28;20436;-83
2022/08/24 09:38:56;;;;;;;2.00;1.90;;;;;;;26.55;59.01;101760.41;5074288;28;20095;-83
2022/08/24 09:41:21;;;;;;;;;;;;;;;26.58;59.48;101761.97;5064901;28;20400;-82
2022/08/24 09:44:12;;;;;;;2.00;1.90;;;;;;;26.67;59.69;101767.53;5075757;28;19912;-83
2022/08/24 09:46:46;;;;;;;1.60;1.60;;;;;;;26.87;58.38;101770.63;5042920;28;20105;-84
2022/08/24 09:49:39;;;;;;;2.10;2.00;;;;;;;27.01;58.54;101763.50;5057509;28;20103;-83
2022/08/24 09:52:20;;;;;;;1.85;1.75;;;;;;;27.21;58.34;101762.91;5059010;28;20508;-83
2022/08/24 09:55:13;;;;;;;2.05;1.90;;;;;;;27.44;52.86;101760.44;5054185;28;20561;-83
2022/08/24 09:58:04;;;;;;;2.50;2.30;;;;;;;27.50;56.57;101764.47;5054990;28;20060;-83
2022/08/24 10:00:37;;;;;;;2.13;1.98;;;;;;;27.58;55.71;101764.75;5023417;28;20033;-83
2022/08/24 10:03:23;;;;;;;1.80;1.70;;;;;;;27.63;54.19;101770.59;5054756;28;20075;-83
2022/08/24 10:06:02;;;;;;;1.65;1.55;;;;;;;27.67;56.11;101765.88;5055209;28;20037;-83
2022/08/24 10:08:48;;;;;;;1.92;1.83;;;;;;;27.86;51.35;101766.22;5054284;28;20021;-82
2022/08/24 10:11:32;;;;;;;2.05;1.80;;;;;;;28.06;55.92;101753.19;5072953;28;20039;-83
2022/08/24 10:14:28;;;;;;;2.25;2.10;;;;;;;28.32;54.41;101753.91;5074851;28;20035;-83
2022/08/24 10:17:01;;;;;;;2.40;2.20;;;;;;;28.57;51.82;101756.50;5074556;28;20085;-83
2022/08/24 10:20:16;;;;;;;2.25;2.05;;;;;;;28.69;52.96;101746.69;5073026;28;20035;-81
2022/08/24 10:23:19;;;;;;;2.50;2.30;;;;;;;28.88;51.10;101743.44;4973187;28;20094;-81
2022/08/24 10:25:59;;;;;;;1.90;1.80;;;;;;;28.97;52.65;101738.22;4974052;28;20034;-82
2022/08/24 10:29:02;;;;;;;2.10;2.00;;;;;;;29.09;48.50;101732.88;5063242;28;20036;-82
2022/08/24 10:31:39;;;;;;;2.47;1.80;;;;;;;29.13;48.34;101739.66;5074727;28;20032;-82
2022/08/24 10:34:33;;;;;;;1.85;1.75;;;;;;;29.27;50.76;101741.22;5073784;28;20178;-81
2022/08/24 10:37:42;;;;;;;1.70;1.60;;;;;;;29.22;50.34;101735.38;5073609;28;20020;-81
2022/08/24 10:40:36;;;;;;;1.55;1.45;;;;;;;29.05;52.22;101726.91;5074170;28;20275;-83
2022/08/24 10:46:17;;;;;;;1.80;1.70;;;;;;;28.60;51.74;101734.88;5073685;28;20034;-83
2022/08/24 10:48:58;;;;;;;1.55;1.50;;;;;;;28.45;53.42;101737.81;5055362;28;20477;-83
2022/08/24 10:51:49;;;;;;;1.50;1.48;;;;;;;28.36;54.41;101730.50;5054725;28;20025;-85
2022/08/24 10:54:17;;;;;;;1.50;1.40;;;;;;;28.31;54.51;101733.53;5053661;28;20021;-85
2022/08/24 10:57:27;;;;;;;1.30;1.30;;;;;;;28.29;54.76;101731.94;5052953;28;20457;-85
2022/08/24 11:00:05;;;;;;;1.25;1.25;;;;;;;28.39;54.46;101727.59;5036890;28;20530;-84
2022/08/24 11:02:35;;;;;;;1.30;1.30;;;;;;;28.56;52.44;101728.94;5054005;28;20025;-85
2022/08/24 11:05:04;;;;;;;1.38;1.27;;;;;;;28.84;52.97;101731.28;5051875;28;20036;-84
2022/08/24 11:07:30;;;;;;;1.63;1.52;;;;;;;29.12;51.02;101724.59;5053897;28;20021;-84
2022/08/24 11:10:05;;;;;;;1.80;1.70;;;;;;;29.43;50.81;101724.81;5053651;28;20016;-85
2022/08/24 11:12:30;;;;;;;1.70;1.60;;;;;;;29.80;47.64;101723.56;5053326;28;20032;-86
2022/08/24 11:14:57;;;;;;;;;;;;;;;30.01;47.56;101712.91;5054133;28;20017;-86
2022/08/24 11:17:25;;;;;;;2.20;2.00;;;;;;;30.14;47.77;101718.06;5053785;28;19966;-85
2022/08/24 11:19:51;;;;;;;2.33;2.08;;;;;;;30.20;44.89;101712.19;5052764;28;20094;-85
2022/08/24 11:22:41;;;;;;;1.90;1.80;;;;;;;30.19;46.93;101713.16;5053749;28;20052;-85
2022/08/24 11:25:24;;;;;;;2.28;1.80;;;;;;;30.17;48.20;101709.78;5052622;28;20068;-85
2022/08/24 11:27:51;;;;;;;2.13;1.90;;;;;;;30.12;43.14;101712.00;5053219;28;20385;-85
2022/08/24 11:30:16;;;;;;;2.33;2.13;;;;;;;30.03;47.13;101713.63;5053588;28;20066;-85
2022/08/24 11:32:46;;;;;;;1.90;1.80;;;;;;;29.95;47.35;101711.59;5052601;28;20045;-85
2022/08/24 11:35:23;;;;;;;2.17;1.80;;;;;;;29.80;46.15;101702.16;5053335;28;20025;-85
2022/08/24 11:37:51;;;;;;;1.80;1.70;;;;;;;29.72;44.76;101711.66;5053247;28;20028;-85
2022/08/24 11:40:18;;;;;;;2.40;2.20;;;;;;;29.55;43.88;101712.25;5052582;28;20025;-85
2022/08/24 11:43:01;;;;;;;2.35;2.15;;;;;;;29.34;44.93;101707.69;5053415;28;20043;-85
2022/08/24 11:45:51;;;;;;;3.08;2.20;;;;;;;29.25;46.08;101705.75;5053347;28;20030;-85
2022/08/24 11:48:22;;;;;;;4.07;2.35;;;;;;;29.19;45.32;101703.56;5052667;28;20086;-86
2022/08/24 11:50:58;;;;;;;2.40;2.20;;;;;;;29.33;48.00;101692.63;5053278;28;20036;-85
2022/08/24 11:53:35;;;;;;;1.95;1.85;;;;;;;29.46;44.12;101696.97;5052730;28;20504;-85
2022/08/24 11:56:13;;;;;;;2.00;1.90;;;;;;;29.52;46.41;101696.44;5052697;28;20028;-85